Time;durP1;ratioP1;P1;durP2;ratioP2;P2;SDS_P1;SDS_P2;PMS_P1;PMS_P2;Temp;Humidity;BMP_temperature;BMP_pressure;BME280_temperature;BME280_humidity;BME280_pressure;Samples;Min_cycle;Max_cycle;Signal;HPM_P1;HPM_P2
2023/09/29 00:01:38;;;;;;;0.82;0.60;;;;;;;17.40;60.51;100506.09;5348669;26;33035;-79
2023/09/29 00:04:08;;;;;;;1.73;0.62;;;;;;;17.39;60.14;100505.25;5349332;26;34059;-79
2023/09/29 00:06:36;;;;;;;4.47;2.22;;;;;;;17.22;60.89;100507.22;5367864;26;34132;-79
2023/09/29 00:09:07;;;;;;;0.60;0.60;;;;;;;17.26;60.72;100503.41;5347779;26;33096;-79
2023/09/29 00:11:35;;;;;;;1.15;1.08;;;;;;;17.15;60.97;100496.06;5367960;26;33206;-79
2023/09/29 00:14:02;;;;;;;0.20;0.20;;;;;;;17.24;60.94;100500.84;5367259;26;33719;-79
2023/09/29 00:16:30;;;;;;;3.00;2.12;;;;;;;17.34;60.23;100498.47;5367325;26;33633;-79
2023/09/29 00:18:58;;;;;;;0.62;0.62;;;;;;;17.15;60.85;100494.25;5348898;26;32930;-79
2023/09/29 00:21:26;;;;;;;0.50;0.50;;;;;;;16.99;61.67;100496.09;5366128;26;33556;-79
2023/09/29 00:23:54;;;;;;;0.73;0.73;;;;;;;16.93;61.92;100501.81;5366914;26;33824;-79
2023/09/29 00:26:22;;;;;;;0.80;0.80;;;;;;;16.89;61.97;100502.94;5367196;26;34958;-79
2023/09/29 00:28:51;;;;;;;1.23;1.12;;;;;;;16.89;61.97;100502.94;5367576;26;34130;-80
2023/09/29 00:31:19;;;;;;;0.88;0.88;;;;;;;16.97;61.57;100500.69;5367252;26;34081;-80
2023/09/29 00:33:47;;;;;;;1.48;1.25;;;;;;;16.97;61.53;100498.00;5367337;26;33846;-80
2023/09/29 00:36:16;;;;;;;0.25;0.25;;;;;;;16.88;61.98;100494.06;5367319;26;34315;-80
2023/09/29 00:38:43;;;;;;;1.52;1.15;;;;;;;16.94;61.67;100494.66;5367241;26;33679;-80
2023/09/29 00:41:11;;;;;;;5.47;0.90;;;;;;;16.84;61.69;100492.53;5366334;26;33702;-80
2023/09/29 00:43:39;;;;;;;3.50;0.65;;;;;;;17.06;60.83;100481.47;5348473;26;33367;-80
2023/09/29 00:46:06;;;;;;;3.17;0.95;;;;;;;16.84;61.77;100491.66;5386421;26;34290;-80
2023/09/29 00:48:38;;;;;;;1.87;1.58;;;;;;;16.94;61.64;100490.19;5346029;26;33230;-80
2023/09/29 00:51:06;;;;;;;1.35;1.25;;;;;;;16.79;62.10;100488.41;5346233;26;34202;-80
2023/09/29 00:53:35;;;;;;;2.97;1.25;;;;;;;16.67;62.41;100489.97;5348124;26;33779;-80
2023/09/29 00:56:03;;;;;;;0.55;0.55;;;;;;;16.82;61.38;100490.91;5367536;26;34564;-81
2023/09/29 00:58:31;;;;;;;1.10;0.75;;;;;;;16.60;62.46;100489.44;5348498;26;33680;-80
2023/09/29 01:01:00;;;;;;;0.47;0.47;;;;;;;16.80;61.82;100485.66;5348488;26;34366;-81
2023/09/29 01:03:28;;;;;;;4.37;1.05;;;;;;;16.79;61.65;100483.09;5367346;26;34862;-79
2023/09/29 01:05:56;;;;;;;1.17;0.75;;;;;;;16.77;61.59;100479.66;5366963;26;34248;-79
2023/09/29 01:08:26;;;;;;;3.90;1.23;;;;;;;16.71;62.14;100495.97;5347836;26;34329;-79
2023/09/29 01:10:54;;;;;;;1.40;1.30;;;;;;;16.70;62.02;100491.59;5367140;26;35169;-79
2023/09/29 01:13:22;;;;;;;0.90;0.90;;;;;;;16.71;61.85;100488.84;5386700;26;33549;-79
2023/09/29 01:15:50;;;;;;;0.80;0.80;;;;;;;16.69;61.87;100492.53;5348373;26;33929;-78
2023/09/29 01:18:19;;;;;;;1.20;0.57;;;;;;;16.81;61.59;100489.19;5348072;26;33266;-79
2023/09/29 01:20:47;;;;;;;1.80;1.60;;;;;;;16.68;61.87;100486.34;5348457;26;33001;-79
2023/09/29 01:23:15;;;;;;;0.60;0.40;;;;;;;16.63;61.78;100488.44;5388346;26;33922;-79
2023/09/29 01:25:43;;;;;;;1.00;0.80;;;;;;;16.59;62.00;100493.06;5349073;26;33292;-79
2023/09/29 01:28:11;;;;;;;1.27;1.17;;;;;;;16.52;62.44;100486.38;5331077;26;32680;-78
2023/09/29 01:30:43;;;;;;;1.08;0.57;;;;;;;16.53;62.14;100488.09;5368174;26;34157;-78
2023/09/29 01:33:11;;;;;;;0.23;0.17;;;;;;;16.69;61.44;100484.53;5331371;26;32587;-78
2023/09/29 01:35:39;;;;;;;0.52;0.52;;;;;;;16.54;61.92;100484.47;5349185;26;33183;-79
2023/09/29 01:38:08;;;;;;;2.95;1.75;;;;;;;16.36;62.43;100485.53;5349408;26;33144;-79
2023/09/29 01:40:40;;;;;;;1.33;1.15;;;;;;;16.41;62.04;100486.12;5348530;26;32862;-79
2023/09/29 01:43:08;;;;;;;0.57;0.55;;;;;;;16.35;62.59;100486.47;5348502;26;33263;-79
2023/09/29 01:45:37;;;;;;;0.50;0.50;;;;;;;16.38;62.41;100488.97;5367817;26;32995;-79
2023/09/29 01:48:05;;;;;;;1.87;1.55;;;;;;;16.22;62.77;100483.63;5349471;26;32748;-79
2023/09/29 01:50:33;;;;;;;1.30;1.15;;;;;;;16.29;62.41;100487.69;5368302;26;33726;-80
2023/09/29 01:53:01;;;;;;;1.20;1.10;;;;;;;16.37;62.44;100484.56;5368047;26;34433;-81
2023/09/29 01:55:30;;;;;;;1.80;0.90;;;;;;;16.37;62.46;100487.22;5367423;26;34809;-80
2023/09/29 01:57:58;;;;;;;1.05;0.98;;;;;;;16.34;62.34;100488.28;5368167;26;34056;-79
2023/09/29 02:00:28;;;;;;;0.82;0.52;;;;;;;16.27;62.21;100486.03;5367246;26;34576;-79
2023/09/29 02:02:59;;;;;;;1.08;0.73;;;;;;;16.40;61.95;100487.06;5349808;26;33467;-79
2023/09/29 02:05:27;;;;;;;1.77;1.35;;;;;;;16.33;62.28;100485.69;5349022;26;33226;-79
2023/09/29 02:07:55;;;;;;;0.95;0.55;;;;;;;16.21;62.59;100489.06;5388198;26;34074;-79
2023/09/29 02:10:24;;;;;;;1.15;1.08;;;;;;;16.19;62.62;100496.25;5368092;26;34022;-79
2023/09/29 02:12:53;;;;;;;0.50;0.50;;;;;;;16.12;62.98;100495.75;5331243;26;33112;-79
2023/09/29 02:15:21;;;;;;;1.40;1.05;;;;;;;16.17;62.67;100484.84;5367566;26;34040;-79
2023/09/29 02:17:50;;;;;;;0.85;0.60;;;;;;;16.18;62.88;100490.06;5367950;26;33195;-79
2023/09/29 02:20:20;;;;;;;1.08;0.85;;;;;;;16.15;62.87;100484.09;5349206;26;34356;-79
2023/09/29 02:22:48;;;;;;;1.33;0.73;;;;;;;16.10;62.91;100482.53;5349149;26;34475;-79
2023/09/29 02:25:18;;;;;;;0.40;0.40;;;;;;;16.17;62.79;100488.37;5349929;26;32989;-79
2023/09/29 02:27:46;;;;;;;0.70;0.35;;;;;;;16.08;62.97;100476.41;5368507;26;34104;-79
2023/09/29 02:30:14;;;;;;;11.18;1.35;;;;;;;15.99;63.20;100486.72;5349757;26;33593;-80
2023/09/29 02:32:42;;;;;;;0.50;0.25;;;;;;;16.08;62.75;100489.72;5367833;26;34064;-80
2023/09/29 02:35:10;;;;;;;0.25;0.25;;;;;;;16.19;62.31;100488.28;5349505;26;34912;-80
2023/09/29 02:37:39;;;;;;;3.92;0.62;;;;;;;16.10;62.47;100479.88;5368297;26;33290;-80
2023/09/29 02:40:14;;;;;;;0.70;0.70;;;;;;;16.00;62.76;100485.78;5366705;26;35240;-80
2023/09/29 02:42:46;;;;;;;0.52;0.52;;;;;;;16.12;62.31;100485.09;5348041;26;33263;-80
2023/09/29 02:45:14;;;;;;;0.73;0.73;;;;;;;15.90;63.06;100482.75;5349219;26;33443;-80
2023/09/29 02:47:43;;;;;;;1.85;1.73;;;;;;;15.85;63.01;100479.47;5367124;26;33266;-80
2023/09/29 02:50:12;;;;;;;0.68;0.32;;;;;;;16.03;62.67;100477.63;5330388;26;32912;-80
2023/09/29 02:52:40;;;;;;;1.27;0.70;;;;;;;16.00;62.61;100478.66;5348970;26;34196;-80
2023/09/29 02:55:12;;;;;;;1.25;1.17;;;;;;;16.00;62.44;100481.31;5367896;26;33947;-80
2023/09/29 02:57:41;;;;;;;;;;;;;;;15.95;62.62;100478.06;5369114;26;33373;-80
2023/09/29 03:00:15;;;;;;;0.68;0.68;;;;;;;16.08;62.18;100479.06;5349333;26;33959;-80
2023/09/29 03:02:43;;;;;;;1.08;1.00;;;;;;;15.93;62.54;100487.91;5349711;26;33535;-80
2023/09/29 03:05:14;;;;;;;6.05;1.55;;;;;;;15.88;62.83;100479.31;5367569;26;34131;-80
2023/09/29 03:07:43;;;;;;;1.37;1.30;;;;;;;15.89;62.77;100475.72;5368393;26;33382;-79
2023/09/29 03:10:15;;;;;;;5.72;1.30;;;;;;;15.98;62.25;100472.53;5366210;26;33837;-80
2023/09/29 03:12:44;;;;;;;1.35;1.00;;;;;;;15.81;62.92;100477.97;5348838;26;34658;-80
2023/09/29 03:15:15;;;;;;;0.82;0.80;;;;;;;15.91;62.65;100479.16;5348784;26;34878;-81
2023/09/29 03:17:45;;;;;;;0.77;0.77;;;;;;;15.89;62.41;100478.38;5368183;26;33401;-80
2023/09/29 03:20:14;;;;;;;0.75;0.60;;;;;;;15.93;62.28;100479.94;5367927;26;34028;-80
2023/09/29 03:22:46;;;;;;;1.42;0.98;;;;;;;15.81;61.92;100478.81;5349812;26;33924;-80
2023/09/29 03:25:18;;;;;;;0.68;0.68;;;;;;;15.64;62.66;100480.66;5349140;26;34180;-80
2023/09/29 03:27:45;;;;;;;0.28;0.28;;;;;;;15.53;63.02;100474.09;5349808;26;34275;-80
2023/09/29 03:30:15;;;;;;;1.80;1.70;;;;;;;15.69;62.63;100489.25;5367990;26;33666;-80
2023/09/29 03:32:44;;;;;;;3.33;2.05;;;;;;;15.55;62.99;100485.50;5350114;26;34134;-80
2023/09/29 03:35:13;;;;;;;1.35;1.25;;;;;;;15.42;63.15;100476.44;5349554;26;35265;-79
2023/09/29 03:37:43;;;;;;;1.87;1.75;;;;;;;15.42;63.89;100480.91;5367145;26;33423;-79
2023/09/29 03:40:18;;;;;;;0.43;0.43;;;;;;;15.53;63.23;100481.22;5349041;26;32827;-79
2023/09/29 03:42:46;;;;;;;1.87;1.55;;;;;;;15.51;63.43;100481.28;5368619;26;35186;-79
2023/09/29 03:45:14;;;;;;;0.35;0.35;;;;;;;15.57;62.88;100488.06;5365788;26;34234;-79
2023/09/29 03:47:46;;;;;;;0.22;0.22;;;;;;;15.45;63.27;100481.59;5347522;26;33510;-80
2023/09/29 03:50:15;;;;;;;0.70;0.70;;;;;;;15.54;62.87;100483.78;5367485;26;33626;-81
2023/09/29 03:52:44;;;;;;;1.60;1.48;;;;;;;15.78;61.62;100488.75;5349220;26;34388;-80
2023/09/29 03:55:13;;;;;;;0.85;0.77;;;;;;;15.71;61.87;100490.88;5348667;26;33907;-80
2023/09/29 03:57:41;;;;;;;0.45;0.45;;;;;;;15.59;62.43;100495.03;5348900;26;32500;-79
2023/09/29 04:00:12;;;;;;;0.80;0.62;;;;;;;15.44;62.94;100495.00;5367606;26;33902;-80
2023/09/29 04:02:41;;;;;;;1.27;1.17;;;;;;;15.45;63.04;100502.03;5330850;26;33191;-79
2023/09/29 04:05:09;;;;;;;1.05;0.90;;;;;;;15.24;63.87;100493.34;5349045;26;33630;-79
2023/09/29 04:07:39;;;;;;;4.43;1.15;;;;;;;15.24;63.78;100504.91;5367482;26;33701;-78
2023/09/29 04:10:09;;;;;;;1.10;1.08;;;;;;;15.17;64.14;100502.63;5349078;26;34641;-79
2023/09/29 04:12:42;;;;;;;0.47;0.47;;;;;;;15.44;62.94;100501.19;5348390;26;33556;-80
2023/09/29 04:15:10;;;;;;;3.35;0.98;;;;;;;15.29;63.66;100499.34;5330674;26;32978;-80
2023/09/29 04:17:39;;;;;;;0.75;0.75;;;;;;;15.22;63.95;100500.56;5330334;26;34152;-79
2023/09/29 04:20:08;;;;;;;0.93;0.93;;;;;;;15.19;63.57;100501.63;5330173;26;33905;-79
2023/09/29 04:22:36;;;;;;;1.77;1.67;;;;;;;15.25;63.76;100505.75;5367435;26;33620;-80
2023/09/29 04:25:09;;;;;;;0.60;0.60;;;;;;;15.36;63.12;100506.03;5366902;26;33746;-80
2023/09/29 04:27:38;;;;;;;0.90;0.90;;;;;;;15.33;62.92;100499.09;5330740;26;33403;-80
2023/09/29 04:30:08;;;;;;;1.67;1.08;;;;;;;15.34;62.79;100502.63;5348142;26;35195;-80
2023/09/29 04:32:36;;;;;;;1.45;1.35;;;;;;;15.28;63.02;100501.09;5330342;26;32884;-81
2023/09/29 04:35:05;;;;;;;1.25;0.93;;;;;;;15.28;63.03;100494.94;5366646;26;33892;-80
2023/09/29 04:37:32;;;;;;;2.72;1.37;;;;;;;15.23;63.42;100510.28;5366641;26;32862;-80
2023/09/29 04:40:00;;;;;;;2.42;2.25;;;;;;;15.40;62.85;100502.28;5347909;26;33200;-80
2023/09/29 04:42:28;;;;;;;1.08;0.80;;;;;;;15.17;63.58;100505.28;5367452;26;33852;-80
2023/09/29 04:44:55;;;;;;;0.65;0.65;;;;;;;15.30;62.83;100506.38;5366388;26;34881;-80
2023/09/29 04:47:23;;;;;;;0.93;0.93;;;;;;;15.28;63.02;100510.88;5348662;26;32576;-79
2023/09/29 04:49:51;;;;;;;1.30;1.20;;;;;;;15.21;63.51;100509.50;5366188;26;33170;-80
2023/09/29 04:52:19;;;;;;;0.32;0.32;;;;;;;15.22;63.47;100516.53;5367064;26;33581;-79
2023/09/29 04:54:46;;;;;;;2.92;0.62;;;;;;;15.52;62.49;100517.59;5367164;26;33459;-79
2023/09/29 04:57:14;;;;;;;1.10;1.10;;;;;;;15.32;63.12;100515.13;5349075;26;32991;-80
2023/09/29 04:59:42;;;;;;;0.50;0.50;;;;;;;15.49;62.35;100520.44;5330803;26;32961;-79
2023/09/29 05:02:09;;;;;;;1.40;1.30;;;;;;;15.46;62.79;100520.59;5348457;26;32904;-79
2023/09/29 05:04:39;;;;;;;1.30;0.37;;;;;;;15.09;64.26;100527.78;5368675;26;34159;-79
2023/09/29 05:07:08;;;;;;;3.70;2.08;;;;;;;15.13;64.10;100523.19;5367263;26;32956;-79
2023/09/29 05:09:35;;;;;;;3.00;1.40;;;;;;;15.21;63.94;100525.47;5349568;26;34677;-79
2023/09/29 05:12:04;;;;;;;2.58;2.37;;;;;;;15.21;63.93;100523.66;5367215;26;34000;-79
2023/09/29 05:14:32;;;;;;;0.85;0.85;;;;;;;15.37;63.38;100521.06;5346480;26;34082;-79
2023/09/29 05:17:00;;;;;;;0.80;0.62;;;;;;;15.07;64.69;100524.38;5365632;26;33569;-79
2023/09/29 05:19:28;;;;;;;7.68;2.85;;;;;;;15.31;64.34;100526.72;5346441;26;33769;-80
2023/09/29 05:21:56;;;;;;;1.42;1.33;;;;;;;15.15;64.91;100517.81;5365130;26;34311;-80
2023/09/29 05:24:23;;;;;;;0.88;0.88;;;;;;;15.29;64.92;100515.31;5365168;26;33479;-80
2023/09/29 05:26:53;;;;;;;1.67;0.52;;;;;;;15.29;65.00;100528.59;5365808;26;33187;-80
2023/09/29 05:29:20;;;;;;;0.82;0.82;;;;;;;15.42;64.77;100520.81;5365393;26;33922;-80
2023/09/29 05:31:48;;;;;;;0.98;0.68;;;;;;;15.44;65.08;100526.94;5346471;26;33929;-80
2023/09/29 05:34:17;;;;;;;0.70;0.70;;;;;;;15.45;65.56;100529.50;5385735;26;34609;-80
2023/09/29 05:36:45;;;;;;;0.85;0.85;;;;;;;15.57;65.49;100525.31;5346493;26;34582;-80
2023/09/29 05:39:14;;;;;;;1.05;1.05;;;;;;;15.86;64.45;100529.16;5346880;26;34004;-80
2023/09/29 05:41:42;;;;;;;2.25;1.50;;;;;;;15.73;65.41;100522.78;5368349;26;34045;-81
2023/09/29 05:44:10;;;;;;;1.95;1.23;;;;;;;16.09;64.13;100531.44;5349312;26;34522;-81
2023/09/29 05:46:37;;;;;;;1.08;0.70;;;;;;;16.25;64.37;100525.25;5349430;26;32520;-80
2023/09/29 05:49:05;;;;;;;3.00;1.67;;;;;;;16.11;65.15;100523.34;5368324;26;33547;-81
2023/09/29 05:51:33;;;;;;;1.87;1.77;;;;;;;16.23;65.12;100535.97;5368256;26;33910;-81
2023/09/29 05:54:02;;;;;;;27.58;3.00;;;;;;;16.27;65.19;100534.00;5368122;26;34496;-82
2023/09/29 05:56:31;;;;;;;1.85;1.17;;;;;;;16.27;65.40;100529.53;5349755;26;33253;-80
2023/09/29 05:58:59;;;;;;;1.98;1.25;;;;;;;16.44;64.90;100525.94;5367778;26;32813;-82
2023/09/29 06:01:28;;;;;;;1.52;1.42;;;;;;;16.39;65.17;100528.00;5331326;26;34151;-81
2023/09/29 06:03:56;;;;;;;1.37;1.27;;;;;;;16.50;65.26;100528.25;5367929;26;33770;-80
2023/09/29 06:06:23;;;;;;;0.37;0.37;;;;;;;16.70;64.82;100534.25;5368366;26;33589;-80
2023/09/29 06:08:51;;;;;;;2.05;1.50;;;;;;;16.87;64.51;100531.50;5348876;26;32726;-80
2023/09/29 06:11:25;;;;;;;1.65;1.55;;;;;;;17.10;64.07;100524.84;5369757;26;34790;-80
2023/09/29 06:13:52;;;;;;;1.75;1.05;;;;;;;17.15;64.29;100534.28;5364706;26;33863;-81
2023/09/29 06:16:20;;;;;;;1.12;1.12;;;;;;;17.32;64.04;100532.41;5365895;26;33828;-81
2023/09/29 06:18:48;;;;;;;1.60;1.50;;;;;;;17.69;63.60;100533.69;5346892;26;34189;-80
2023/09/29 06:21:16;;;;;;;1.95;1.55;;;;;;;17.79;64.00;100528.69;5365768;26;33638;-80
2023/09/29 06:23:44;;;;;;;1.65;1.55;;;;;;;18.06;63.83;100534.97;5366094;26;34228;-80
2023/09/29 06:26:12;;;;;;;7.40;2.15;;;;;;;18.30;64.00;100529.03;5364931;26;33333;-81
2023/09/29 06:28:39;;;;;;;3.22;1.58;;;;;;;18.15;64.56;100536.22;5364726;26;32902;-80
2023/09/29 06:31:07;;;;;;;1.83;1.35;;;;;;;18.42;63.90;100537.12;5346552;26;33095;-80
2023/09/29 06:33:35;;;;;;;1.70;1.27;;;;;;;18.71;62.62;100544.25;5365285;26;34326;-80
2023/09/29 06:36:03;;;;;;;2.30;1.30;;;;;;;18.59;62.68;100544.03;5346725;26;34206;-80
2023/09/29 06:38:31;;;;;;;1.12;1.02;;;;;;;19.06;61.71;100533.84;5365212;26;32480;-81
2023/09/29 06:40:59;;;;;;;1.37;0.93;;;;;;;19.25;61.14;100542.34;5346948;26;33759;-80
2023/09/29 06:43:26;;;;;;;3.75;1.50;;;;;;;19.43;60.57;100542.94;5365361;26;34362;-80
2023/09/29 06:45:54;;;;;;;1.20;0.98;;;;;;;19.71;59.28;100541.06;5385289;26;33669;-80
2023/09/29 06:48:28;;;;;;;4.12;1.65;;;;;;;19.88;59.61;100536.19;5330496;26;32862;-80
2023/09/29 06:50:59;;;;;;;1.48;1.40;;;;;;;19.80;59.23;100538.59;5364763;26;34716;-80
2023/09/29 06:53:29;;;;;;;;;;;;;;;19.81;57.14;100540.28;5385828;26;33825;-80
2023/09/29 06:55:58;;;;;;;3.00;1.67;;;;;;;20.03;56.53;100539.59;5347206;26;33583;-80
2023/09/29 06:58:26;;;;;;;2.10;1.27;;;;;;;20.14;53.69;100539.72;5344574;26;33871;-80
2023/09/29 07:00:56;;;;;;;0.82;0.82;;;;;;;20.31;53.16;100534.94;5364838;26;33044;-81
2023/09/29 07:03:30;;;;;;;3.22;2.83;;;;;;;20.44;52.85;100543.81;5366645;26;34156;-80
2023/09/29 07:06:00;;;;;;;1.12;0.95;;;;;;;21.10;51.91;100549.69;5347167;26;34160;-80
2023/09/29 07:08:28;;;;;;;16.75;3.58;;;;;;;21.08;51.47;100547.12;5347447;26;33161;-79
2023/09/29 07:10:56;;;;;;;2.47;2.10;;;;;;;21.19;50.64;100549.84;5328482;26;33516;-80
2023/09/29 07:13:24;;;;;;;2.03;1.83;;;;;;;21.51;49.84;100553.75;5346644;26;33503;-80
2023/09/29 07:15:52;;;;;;;3.33;1.70;;;;;;;21.43;50.34;100552.53;5346796;26;33277;-80
2023/09/29 07:18:21;;;;;;;1.48;1.37;;;;;;;21.68;49.33;100556.84;5346842;26;33029;-80
2023/09/29 07:20:52;;;;;;;2.17;2.03;;;;;;;21.85;49.55;100560.06;5365657;26;34703;-80
2023/09/29 07:23:23;;;;;;;1.62;1.35;;;;;;;22.06;48.29;100562.87;5347253;26;34421;-80
2023/09/29 07:25:54;;;;;;;4.90;1.75;;;;;;;21.93;48.66;100553.09;5365726;26;33693;-80
2023/09/29 07:28:22;;;;;;;1.35;1.00;;;;;;;22.08;48.52;100553.72;5328247;26;33035;-80
2023/09/29 07:30:53;;;;;;;3.03;1.75;;;;;;;22.10;46.51;100557.12;5328449;26;33577;-80
2023/09/29 07:33:21;;;;;;;2.87;2.03;;;;;;;22.39;45.55;100560.19;5366205;26;33996;-81
2023/09/29 07:35:48;;;;;;;1.67;1.20;;;;;;;22.38;45.84;100554.94;5365259;26;34303;-80
2023/09/29 07:38:19;;;;;;;1.27;1.17;;;;;;;22.29;46.87;100561.06;5328076;26;34167;-80
2023/09/29 07:40:47;;;;;;;1.05;1.05;;;;;;;22.34;45.06;100564.22;5366249;26;33838;-80
2023/09/29 07:43:15;;;;;;;0.47;0.47;;;;;;;22.44;44.96;100559.81;5365316;26;33807;-80
2023/09/29 07:45:42;;;;;;;3.12;1.12;;;;;;;22.53;45.61;100556.38;5346825;26;32978;-80
2023/09/29 07:48:14;;;;;;;1.37;1.27;;;;;;;22.75;45.46;100568.94;5366186;26;33887;-80
2023/09/29 07:50:42;;;;;;;2.33;1.75;;;;;;;22.72;45.96;100561.97;5365419;26;34487;-81
2023/09/29 07:53:11;;;;;;;2.58;1.62;;;;;;;23.32;44.70;100561.53;5365251;26;34519;-80
2023/09/29 07:55:39;;;;;;;2.08;1.85;;;;;;;22.94;43.73;100565.63;5329072;26;33178;-80
2023/09/29 07:58:07;;;;;;;0.85;0.80;;;;;;;22.91;43.96;100563.16;5346196;26;33826;-80
2023/09/29 08:00:34;;;;;;;1.10;1.08;;;;;;;23.09;44.42;100564.31;5346363;26;34662;-80
2023/09/29 08:03:02;;;;;;;0.93;0.85;;;;;;;23.57;43.21;100561.12;5346881;26;34717;-80
2023/09/29 08:05:30;;;;;;;1.87;1.65;;;;;;;23.94;42.46;100548.03;5346533;26;32628;-80
2023/09/29 08:07:57;;;;;;;1.23;1.05;;;;;;;23.93;42.32;100553.56;5365476;26;33925;-81
2023/09/29 08:10:25;;;;;;;0.77;0.77;;;;;;;23.98;42.36;100546.78;5365374;26;34057;-80
2023/09/29 08:12:54;;;;;;;6.78;1.48;;;;;;;23.92;42.49;100557.25;5327865;26;34125;-79
2023/09/29 08:15:21;;;;;;;1.37;1.08;;;;;;;23.87;42.29;100556.78;5365182;26;33535;-78
2023/09/29 08:17:50;;;;;;;3.70;1.12;;;;;;;24.09;41.30;100551.22;5364651;26;33961;-79
2023/09/29 08:20:20;;;;;;;1.37;1.08;;;;;;;24.06;41.28;100550.62;5348194;26;33444;-79
2023/09/29 08:22:48;;;;;;;0.55;0.55;;;;;;;24.44;40.73;100549.94;5349479;26;34446;-79
2023/09/29 08:25:20;;;;;;;1.12;1.12;;;;;;;24.28;40.37;100556.69;5348740;26;32242;-79
2023/09/29 08:27:47;;;;;;;1.12;0.82;;;;;;;24.09;41.42;100556.63;5366926;26;33631;-79
2023/09/29 08:30:16;;;;;;;3.87;2.17;;;;;;;24.23;41.98;100553.56;5367498;26;33643;-80
2023/09/29 08:32:44;;;;;;;4.68;1.10;;;;;;;24.62;40.69;100555.53;5367931;26;34114;-79
2023/09/29 08:35:13;;;;;;;3.53;1.42;;;;;;;24.25;41.05;100551.56;5388030;26;33674;-79
2023/09/29 08:37:42;;;;;;;1.48;1.37;;;;;;;24.38;39.40;100553.22;5368228;26;33546;-79
2023/09/29 08:40:14;;;;;;;1.77;0.98;;;;;;;24.51;40.22;100551.12;5347847;26;34098;-80
2023/09/29 08:42:45;;;;;;;0.37;0.37;;;;;;;24.76;39.52;100547.03;5330619;26;34560;-79
2023/09/29 08:45:13;;;;;;;2.50;1.85;;;;;;;24.57;41.09;100545.16;5366636;26;33829;-79
2023/09/29 08:47:41;;;;;;;1.92;1.80;;;;;;;25.09;40.25;100548.50;5366833;26;33833;-79
2023/09/29 08:50:10;;;;;;;1.15;1.02;;;;;;;25.01;39.14;100549.19;5387697;26;34021;-80
2023/09/29 08:52:44;;;;;;;4.65;2.55;;;;;;;25.15;39.82;100545.22;5348474;26;33285;-80
2023/09/29 08:55:12;;;;;;;7.18;2.85;;;;;;;24.73;39.88;100550.00;5349594;26;34341;-80
2023/09/29 08:57:44;;;;;;;1.37;1.02;;;;;;;25.49;39.45;100548.34;5348181;26;33765;-80
2023/09/29 09:00:12;;;;;;;1.10;1.00;;;;;;;25.29;39.66;100557.47;5367328;26;33917;-80
2023/09/29 09:02:41;;;;;;;4.87;1.52;;;;;;;25.75;37.94;100542.31;5348761;26;34753;-80
2023/09/29 09:05:10;;;;;;;1.12;0.80;;;;;;;25.31;38.44;100552.78;5365832;26;34947;-79
2023/09/29 09:07:39;;;;;;;0.80;0.80;;;;;;;25.51;38.46;100546.34;5348692;26;34301;-79
2023/09/29 09:10:09;;;;;;;3.17;1.92;;;;;;;25.41;38.40;100555.47;5347611;26;34138;-83
2023/09/29 09:12:49;;;;;;;1.25;0.98;;;;;;;25.90;38.13;100548.97;5366971;26;33260;-80
2023/09/29 09:15:23;;;;;;;1.10;1.05;;;;;;;25.59;39.44;100542.03;5367301;26;33245;-80
2023/09/29 09:17:51;;;;;;;1.10;0.93;;;;;;;26.23;37.62;100550.25;5330144;26;32940;-80
2023/09/29 09:20:20;;;;;;;0.57;0.57;;;;;;;26.34;36.93;100545.66;5348715;26;33275;-79
2023/09/29 09:23:01;;;;;;;2.05;1.17;;;;;;;26.39;36.67;100548.75;5366917;26;34596;-79
2023/09/29 09:25:35;;;;;;;1.52;1.00;;;;;;;26.27;37.44;100554.38;5348766;26;34948;-80
2023/09/29 09:28:04;;;;;;;1.52;1.00;;;;;;;25.96;36.83;100547.53;5366697;26;34876;-80
2023/09/29 09:30:38;;;;;;;3.42;1.25;;;;;;;25.88;37.12;100539.31;5367592;26;34812;-80
2023/09/29 09:33:06;;;;;;;1.48;1.37;;;;;;;26.28;36.96;100545.25;5387462;26;33657;-80
2023/09/29 09:35:37;;;;;;;1.33;0.93;;;;;;;26.25;36.23;100550.97;5367651;26;35131;-80
2023/09/29 09:38:05;;;;;;;1.75;1.42;;;;;;;26.80;36.02;100539.25;5330528;26;33120;-80
2023/09/29 09:40:34;;;;;;;5.18;1.25;;;;;;;26.90;33.96;100539.19;5367143;26;33845;-80
2023/09/29 09:43:09;;;;;;;6.53;2.53;;;;;;;27.21;34.71;100536.97;5347739;26;33740;-80
2023/09/29 09:45:43;;;;;;;3.30;1.73;;;;;;;27.39;35.78;100534.22;5367836;26;33646;-80
2023/09/29 09:48:14;;;;;;;2.08;1.95;;;;;;;27.31;34.31;100533.16;5349960;26;33459;-80
2023/09/29 09:50:45;;;;;;;1.42;1.23;;;;;;;27.49;34.23;100529.56;5368123;26;33125;-80
2023/09/29 09:53:13;;;;;;;1.15;0.90;;;;;;;27.47;34.85;100526.16;5350404;26;33629;-80
2023/09/29 09:56:04;;;;;;;0.65;0.65;;;;;;;27.33;34.68;100524.00;5331357;26;32668;-79
2023/09/29 09:58:32;;;;;;;3.22;0.90;;;;;;;27.14;35.09;100528.59;5346941;26;32928;-80
2023/09/29 10:01:00;;;;;;;1.45;1.08;;;;;;;27.45;36.21;100522.75;5347289;26;33764;-80
2023/09/29 10:03:28;;;;;;;2.08;1.60;;;;;;;27.86;34.90;100521.16;5347220;26;33362;-80
2023/09/29 10:05:57;;;;;;;2.67;1.05;;;;;;;28.01;33.96;100522.28;5326744;26;34006;-79
2023/09/29 10:08:30;;;;;;;29.12;1.73;;;;;;;27.94;34.60;100523.94;5365661;26;33550;-80
2023/09/29 10:11:12;;;;;;;1.25;1.05;;;;;;;27.69;33.49;100520.22;5365693;26;33236;-80
2023/09/29 10:13:42;;;;;;;1.20;1.10;;;;;;;27.44;35.10;100515.59;5347158;26;34048;-80
2023/09/29 10:16:21;;;;;;;2.55;1.15;;;;;;;28.04;34.36;100508.37;5366091;26;33349;-80
2023/09/29 10:19:00;;;;;;;1.55;1.42;;;;;;;28.37;33.80;100505.81;5347017;26;34674;-80
2023/09/29 10:21:33;;;;;;;2.28;2.00;;;;;;;28.44;33.35;100498.72;5347524;26;34487;-80
2023/09/29 10:24:05;;;;;;;2.65;2.35;;;;;;;28.06;33.76;100508.22;5346965;26;34498;-80
2023/09/29 10:26:46;;;;;;;12.85;1.48;;;;;;;28.22;33.64;100507.44;5346669;26;33878;-80
2023/09/29 10:29:18;;;;;;;0.82;0.73;;;;;;;28.20;33.17;100502.19;5385452;26;33536;-80
2023/09/29 10:31:48;;;;;;;2.15;1.35;;;;;;;28.12;32.84;100504.84;5346544;26;32963;-80
2023/09/29 10:34:21;;;;;;;0.73;0.73;;;;;;;28.30;33.10;100502.88;5349708;26;34181;-81
2023/09/29 10:36:55;;;;;;;1.55;1.45;;;;;;;28.74;33.69;100504.56;5331047;26;32126;-80
2023/09/29 10:39:26;;;;;;;3.30;1.42;;;;;;;28.26;33.18;100495.22;5349405;26;33625;-81
2023/09/29 10:41:58;;;;;;;1.05;1.02;;;;;;;28.22;32.92;100496.56;5330975;26;32778;-80
2023/09/29 10:44:28;;;;;;;29.08;1.55;;;;;;;28.63;32.40;100492.13;5349329;26;34165;-80
2023/09/29 10:46:56;;;;;;;2.20;1.10;;;;;;;28.82;32.70;100496.41;5368238;26;33419;-80
2023/09/29 10:49:31;;;;;;;1.83;1.10;;;;;;;29.26;31.27;100487.94;5349518;26;34479;-80
2023/09/29 10:52:00;;;;;;;3.60;1.23;;;;;;;28.75;33.13;100489.94;5349780;26;33958;-80
2023/09/29 10:54:27;;;;;;;1.15;1.00;;;;;;;28.80;32.91;100487.56;5367589;26;34867;-80
2023/09/29 10:56:55;;;;;;;2.62;1.85;;;;;;;29.14;31.43;100490.16;5349303;26;33808;-80
2023/09/29 10:59:23;;;;;;;4.75;1.58;;;;;;;29.36;32.05;100471.44;5368313;26;33552;-80
2023/09/29 11:01:52;;;;;;;1.20;1.10;;;;;;;29.36;30.62;100471.44;5349564;26;34515;-80
2023/09/29 11:04:19;;;;;;;2.53;2.22;;;;;;;29.20;30.59;100462.28;5349393;26;34129;-80
2023/09/29 11:06:49;;;;;;;9.88;1.08;;;;;;;29.34;31.07;100471.59;5349292;26;32571;-80
2023/09/29 11:09:19;;;;;;;0.80;0.68;;;;;;;29.67;31.06;100453.34;5349862;26;33898;-80
2023/09/29 11:11:48;;;;;;;6.40;2.17;;;;;;;29.77;30.33;100459.47;5349913;26;33552;-80
2023/09/29 11:14:17;;;;;;;1.45;1.00;;;;;;;29.51;31.33;100453.38;5364793;26;34887;-80
2023/09/29 11:16:55;;;;;;;1.90;1.30;;;;;;;29.51;29.81;100450.66;5347239;26;33943;-80
2023/09/29 11:19:25;;;;;;;4.90;1.58;;;;;;;29.58;30.21;100449.00;5328018;26;32899;-81
2023/09/29 11:21:52;;;;;;;14.27;3.33;;;;;;;30.00;30.07;100453.22;5365080;26;34568;-80
2023/09/29 11:24:23;;;;;;;2.50;2.30;;;;;;;29.68;30.06;100441.47;5346697;26;32752;-80
2023/09/29 11:26:55;;;;;;;1.50;1.05;;;;;;;29.51;29.19;100447.94;5385521;26;33031;-80
2023/09/29 11:29:28;;;;;;;0.57;0.57;;;;;;;29.83;29.01;100434.25;5326588;26;34368;-80
2023/09/29 11:31:55;;;;;;;1.10;1.08;;;;;;;29.67;29.88;100437.03;5364307;26;34683;-80
2023/09/29 11:34:24;;;;;;;1.77;0.90;;;;;;;29.73;29.40;100435.50;5345769;26;33215;-80